sensor_id;sensor_type;location;lat;lon;timestamp;P1;durP1;ratioP1;P2;durP2;ratioP2
18677;SDS011;9469;51.114;13.914;2022-09-27T00:03:54;3.67;;;2.70;;
18677;SDS011;9469;51.114;13.914;2022-09-27T00:09:01;4.80;;;3.20;;
18677;SDS011;9469;51.114;13.914;2022-09-27T00:14:07;6.23;;;2.40;;
18677;SDS011;9469;51.114;13.914;2022-09-27T00:19:19;2.47;;;2.10;;
18677;SDS011;9469;51.114;13.914;2022-09-27T00:24:26;3.73;;;2.10;;
18677;SDS011;9469;51.114;13.914;2022-09-27T00:29:32;3.93;;;2.00;;
18677;SDS011;9469;51.114;13.914;2022-09-27T00:34:41;2.90;;;2.37;;
18677;SDS011;9469;51.114;13.914;2022-09-27T00:39:46;4.37;;;2.00;;
18677;SDS011;9469;51.114;13.914;2022-09-27T00:45:00;3.53;;;2.20;;
18677;SDS011;9469;51.114;13.914;2022-09-27T00:50:12;2.90;;;2.23;;
18677;SDS011;9469;51.114;13.914;2022-09-27T00:55:28;2.27;;;1.70;;
18677;SDS011;9469;51.114;13.914;2022-09-27T01:00:37;3.23;;;2.07;;
18677;SDS011;9469;51.114;13.914;2022-09-27T01:05:50;3.17;;;1.60;;
18677;SDS011;9469;51.114;13.914;2022-09-27T01:11:01;3.03;;;1.97;;
18677;SDS011;9469;51.114;13.914;2022-09-27T01:16:19;2.93;;;1.83;;
18677;SDS011;9469;51.114;13.914;2022-09-27T01:32:44;2.83;;;1.93;;
18677;SDS011;9469;51.114;13.914;2022-09-27T01:37:57;2.67;;;1.67;;
18677;SDS011;9469;51.114;13.914;2022-09-27T01:43:12;2.17;;;1.80;;
18677;SDS011;9469;51.114;13.914;2022-09-27T01:48:23;2.40;;;1.60;;
18677;SDS011;9469;51.114;13.914;2022-09-27T01:53:42;2.93;;;1.50;;
18677;SDS011;9469;51.114;13.914;2022-09-27T01:59:13;3.90;;;2.20;;
18677;SDS011;9469;51.114;13.914;2022-09-27T02:04:34;4.13;;;2.00;;
18677;SDS011;9469;51.114;13.914;2022-09-27T02:09:53;3.60;;;1.73;;
18677;SDS011;9469;51.114;13.914;2022-09-27T02:15:29;2.40;;;2.00;;
18677;SDS011;9469;51.114;13.914;2022-09-27T02:21:09;3.90;;;2.60;;
18677;SDS011;9469;51.114;13.914;2022-09-27T02:26:19;3.17;;;2.40;;
18677;SDS011;9469;51.114;13.914;2022-09-27T02:31:28;4.00;;;2.67;;
18677;SDS011;9469;51.114;13.914;2022-09-27T02:36:38;4.77;;;2.57;;
18677;SDS011;9469;51.114;13.914;2022-09-27T02:41:44;3.00;;;2.40;;
18677;SDS011;9469;51.114;13.914;2022-09-27T02:47:03;2.93;;;2.47;;
18677;SDS011;9469;51.114;13.914;2022-09-27T02:52:25;4.20;;;2.87;;
18677;SDS011;9469;51.114;13.914;2022-09-27T02:57:40;5.70;;;3.20;;
18677;SDS011;9469;51.114;13.914;2022-09-27T03:03:08;5.23;;;3.33;;
18677;SDS011;9469;51.114;13.914;2022-09-27T03:08:26;3.77;;;2.93;;
18677;SDS011;9469;51.114;13.914;2022-09-27T03:13:34;6.67;;;2.73;;
18677;SDS011;9469;51.114;13.914;2022-09-27T03:19:01;4.07;;;3.13;;
18677;SDS011;9469;51.114;13.914;2022-09-27T03:24:35;3.97;;;3.23;;
18677;SDS011;9469;51.114;13.914;2022-09-27T03:29:40;4.77;;;3.00;;
18677;SDS011;9469;51.114;13.914;2022-09-27T03:34:50;6.93;;;4.10;;
18677;SDS011;9469;51.114;13.914;2022-09-27T03:39:58;4.93;;;3.20;;
18677;SDS011;9469;51.114;13.914;2022-09-27T03:45:04;5.83;;;3.70;;
18677;SDS011;9469;51.114;13.914;2022-09-27T03:50:13;4.73;;;3.67;;
18677;SDS011;9469;51.114;13.914;2022-09-27T03:55:21;6.13;;;4.10;;
18677;SDS011;9469;51.114;13.914;2022-09-27T04:00:26;4.93;;;4.17;;
18677;SDS011;9469;51.114;13.914;2022-09-27T04:05:33;6.07;;;4.50;;
18677;SDS011;9469;51.114;13.914;2022-09-27T04:10:49;5.83;;;5.20;;
18677;SDS011;9469;51.114;13.914;2022-09-27T04:15:54;6.37;;;4.60;;
18677;SDS011;9469;51.114;13.914;2022-09-27T04:21:18;8.37;;;5.07;;
18677;SDS011;9469;51.114;13.914;2022-09-27T04:26:29;5.67;;;5.07;;
18677;SDS011;9469;51.114;13.914;2022-09-27T04:31:36;7.27;;;5.40;;
18677;SDS011;9469;51.114;13.914;2022-09-27T04:37:05;6.83;;;4.97;;
18677;SDS011;9469;51.114;13.914;2022-09-27T04:42:18;8.57;;;5.33;;
18677;SDS011;9469;51.114;13.914;2022-09-27T04:47:25;9.77;;;6.37;;
18677;SDS011;9469;51.114;13.914;2022-09-27T04:52:30;8.40;;;4.97;;
18677;SDS011;9469;51.114;13.914;2022-09-27T04:57:38;9.30;;;6.40;;
18677;SDS011;9469;51.114;13.914;2022-09-27T05:02:44;6.83;;;6.00;;
18677;SDS011;9469;51.114;13.914;2022-09-27T05:08:28;7.93;;;6.03;;
18677;SDS011;9469;51.114;13.914;2022-09-27T05:13:54;8.33;;;6.23;;
18677;SDS011;9469;51.114;13.914;2022-09-27T05:19:01;7.50;;;5.47;;
18677;SDS011;9469;51.114;13.914;2022-09-27T05:24:26;9.97;;;6.07;;
18677;SDS011;9469;51.114;13.914;2022-09-27T05:29:37;8.10;;;6.17;;
18677;SDS011;9469;51.114;13.914;2022-09-27T05:34:50;6.70;;;5.53;;
18677;SDS011;9469;51.114;13.914;2022-09-27T05:39:56;9.97;;;6.17;;
18677;SDS011;9469;51.114;13.914;2022-09-27T05:45:21;9.17;;;6.43;;
18677;SDS011;9469;51.114;13.914;2022-09-27T05:50:30;10.40;;;6.77;;
18677;SDS011;9469;51.114;13.914;2022-09-27T05:55:36;7.57;;;6.63;;
18677;SDS011;9469;51.114;13.914;2022-09-27T06:00:45;8.70;;;6.70;;
18677;SDS011;9469;51.114;13.914;2022-09-27T06:06:14;10.10;;;6.47;;
18677;SDS011;9469;51.114;13.914;2022-09-27T06:11:23;11.07;;;6.83;;
18677;SDS011;9469;51.114;13.914;2022-09-27T06:16:31;8.10;;;7.00;;
18677;SDS011;9469;51.114;13.914;2022-09-27T06:21:37;8.93;;;6.63;;
18677;SDS011;9469;51.114;13.914;2022-09-27T06:26:43;9.33;;;6.60;;
18677;SDS011;9469;51.114;13.914;2022-09-27T06:32:01;8.67;;;6.67;;
18677;SDS011;9469;51.114;13.914;2022-09-27T06:37:23;10.37;;;7.37;;
18677;SDS011;9469;51.114;13.914;2022-09-27T06:42:29;7.73;;;6.73;;
18677;SDS011;9469;51.114;13.914;2022-09-27T06:47:55;8.20;;;6.50;;
18677;SDS011;9469;51.114;13.914;2022-09-27T06:53:17;7.53;;;6.83;;
18677;SDS011;9469;51.114;13.914;2022-09-27T06:58:26;8.77;;;7.20;;
18677;SDS011;9469;51.114;13.914;2022-09-27T07:04:07;12.43;;;7.27;;
18677;SDS011;9469;51.114;13.914;2022-09-27T07:09:32;9.43;;;7.27;;
18677;SDS011;9469;51.114;13.914;2022-09-27T07:14:40;11.03;;;7.37;;
18677;SDS011;9469;51.114;13.914;2022-09-27T07:19:53;8.83;;;7.13;;
18677;SDS011;9469;51.114;13.914;2022-09-27T07:24:58;6.73;;;6.13;;
18677;SDS011;9469;51.114;13.914;2022-09-27T07:30:04;7.47;;;6.00;;
18677;SDS011;9469;51.114;13.914;2022-09-27T07:35:12;7.33;;;6.73;;
18677;SDS011;9469;51.114;13.914;2022-09-27T07:40:23;7.70;;;7.00;;
18677;SDS011;9469;51.114;13.914;2022-09-27T07:45:29;7.07;;;6.37;;
18677;SDS011;9469;51.114;13.914;2022-09-27T07:50:44;6.90;;;6.20;;
18677;SDS011;9469;51.114;13.914;2022-09-27T07:56:11;7.53;;;6.50;;
18677;SDS011;9469;51.114;13.914;2022-09-27T08:01:18;6.77;;;6.07;;
18677;SDS011;9469;51.114;13.914;2022-09-27T08:06:28;4.40;;;3.97;;
18677;SDS011;9469;51.114;13.914;2022-09-27T08:11:37;6.03;;;5.37;;
18677;SDS011;9469;51.114;13.914;2022-09-27T08:16:46;6.17;;;4.57;;
18677;SDS011;9469;51.114;13.914;2022-09-27T08:22:04;5.47;;;4.60;;
18677;SDS011;9469;51.114;13.914;2022-09-27T08:27:17;4.23;;;3.53;;
18677;SDS011;9469;51.114;13.914;2022-09-27T08:32:27;5.13;;;4.13;;
18677;SDS011;9469;51.114;13.914;2022-09-27T08:37:38;4.17;;;3.87;;
18677;SDS011;9469;51.114;13.914;2022-09-27T08:42:45;3.80;;;3.50;;
18677;SDS011;9469;51.114;13.914;2022-09-27T08:47:55;3.50;;;3.20;;
18677;SDS011;9469;51.114;13.914;2022-09-27T08:53:16;3.50;;;3.20;;
18677;SDS011;9469;51.114;13.914;2022-09-27T08:58:27;3.47;;;3.17;;
18677;SDS011;9469;51.114;13.914;2022-09-27T09:03:42;3.30;;;3.00;;
18677;SDS011;9469;51.114;13.914;2022-09-27T09:09:07;4.37;;;3.00;;
18677;SDS011;9469;51.114;13.914;2022-09-27T09:14:43;2.40;;;2.20;;
18677;SDS011;9469;51.114;13.914;2022-09-27T09:20:07;2.17;;;1.97;;
18677;SDS011;9469;51.114;13.914;2022-09-27T09:25:41;2.10;;;1.90;;
18677;SDS011;9469;51.114;13.914;2022-09-27T09:31:03;2.10;;;1.47;;
18677;SDS011;9469;51.114;13.914;2022-09-27T09:36:24;1.63;;;1.30;;
18677;SDS011;9469;51.114;13.914;2022-09-27T09:41:42;1.07;;;1.07;;
18677;SDS011;9469;51.114;13.914;2022-09-27T09:47:11;6.33;;;3.17;;
18677;SDS011;9469;51.114;13.914;2022-09-27T09:52:28;4.70;;;2.60;;
18677;SDS011;9469;51.114;13.914;2022-09-27T09:57:51;3.40;;;2.47;;
18677;SDS011;9469;51.114;13.914;2022-09-27T10:03:11;9.17;;;5.63;;
18677;SDS011;9469;51.114;13.914;2022-09-27T10:08:19;1.20;;;1.10;;
18677;SDS011;9469;51.114;13.914;2022-09-27T10:13:51;0.60;;;0.60;;
18677;SDS011;9469;51.114;13.914;2022-09-27T10:18:59;0.90;;;0.80;;
18677;SDS011;9469;51.114;13.914;2022-09-27T10:24:09;1.70;;;1.07;;
18677;SDS011;9469;51.114;13.914;2022-09-27T10:29:45;2.67;;;1.37;;
18677;SDS011;9469;51.114;13.914;2022-09-27T10:34:54;0.60;;;0.60;;
18677;SDS011;9469;51.114;13.914;2022-09-27T10:40:00;0.57;;;0.53;;
18677;SDS011;9469;51.114;13.914;2022-09-27T10:50:54;6.83;;;3.63;;
18677;SDS011;9469;51.114;13.914;2022-09-27T10:56:14;5.80;;;3.53;;
18677;SDS011;9469;51.114;13.914;2022-09-27T11:01:36;5.10;;;2.63;;
18677;SDS011;9469;51.114;13.914;2022-09-27T11:07:06;1.43;;;1.33;;
18677;SDS011;9469;51.114;13.914;2022-09-27T11:12:32;2.13;;;1.13;;
18677;SDS011;9469;51.114;13.914;2022-09-27T11:17:47;1.33;;;1.00;;
18677;SDS011;9469;51.114;13.914;2022-09-27T11:28:53;1.93;;;1.40;;
18677;SDS011;9469;51.114;13.914;2022-09-27T11:34:32;3.17;;;2.40;;
18677;SDS011;9469;51.114;13.914;2022-09-27T11:39:55;1.63;;;1.27;;
18677;SDS011;9469;51.114;13.914;2022-09-27T11:45:16;5.37;;;2.70;;
18677;SDS011;9469;51.114;13.914;2022-09-27T11:51:06;2.47;;;0.80;;
18677;SDS011;9469;51.114;13.914;2022-09-27T11:56:22;2.93;;;1.50;;
18677;SDS011;9469;51.114;13.914;2022-09-27T12:01:37;2.43;;;1.60;;
18677;SDS011;9469;51.114;13.914;2022-09-27T12:12:42;1.43;;;1.27;;
18677;SDS011;9469;51.114;13.914;2022-09-27T12:18:24;0.73;;;0.60;;
18677;SDS011;9469;51.114;13.914;2022-09-27T12:23:38;0.70;;;0.70;;
18677;SDS011;9469;51.114;13.914;2022-09-27T12:29:01;3.17;;;1.00;;
18677;SDS011;9469;51.114;13.914;2022-09-27T12:34:19;1.27;;;0.60;;
18677;SDS011;9469;51.114;13.914;2022-09-27T12:39:41;3.23;;;0.73;;
18677;SDS011;9469;51.114;13.914;2022-09-27T12:45:12;1.10;;;0.87;;
18677;SDS011;9469;51.114;13.914;2022-09-27T12:50:22;0.80;;;0.80;;
18677;SDS011;9469;51.114;13.914;2022-09-27T12:55:51;2.00;;;0.80;;
18677;SDS011;9469;51.114;13.914;2022-09-27T13:01:24;0.60;;;0.60;;
18677;SDS011;9469;51.114;13.914;2022-09-27T13:06:46;1.83;;;0.60;;
18677;SDS011;9469;51.114;13.914;2022-09-27T13:12:03;1.40;;;0.40;;
18677;SDS011;9469;51.114;13.914;2022-09-27T13:23:01;1.53;;;0.40;;
18677;SDS011;9469;51.114;13.914;2022-09-27T13:33:47;0.63;;;0.60;;
18677;SDS011;9469;51.114;13.914;2022-09-27T13:39:04;2.40;;;0.60;;
18677;SDS011;9469;51.114;13.914;2022-09-27T13:44:54;0.40;;;0.40;;
18677;SDS011;9469;51.114;13.914;2022-09-27T13:50:25;0.97;;;0.70;;
18677;SDS011;9469;51.114;13.914;2022-09-27T13:55:43;1.80;;;0.67;;
18677;SDS011;9469;51.114;13.914;2022-09-27T14:01:25;0.60;;;0.60;;
18677;SDS011;9469;51.114;13.914;2022-09-27T14:06:33;1.03;;;0.70;;
18677;SDS011;9469;51.114;13.914;2022-09-27T14:11:51;0.80;;;0.80;;
18677;SDS011;9469;51.114;13.914;2022-09-27T14:17:00;0.73;;;0.70;;
18677;SDS011;9469;51.114;13.914;2022-09-27T14:22:11;1.53;;;0.90;;
18677;SDS011;9469;51.114;13.914;2022-09-27T14:27:29;0.57;;;0.57;;
18677;SDS011;9469;51.114;13.914;2022-09-27T14:32:59;1.60;;;0.80;;
18677;SDS011;9469;51.114;13.914;2022-09-27T14:38:19;3.27;;;1.00;;
18677;SDS011;9469;51.114;13.914;2022-09-27T14:43:46;1.57;;;1.00;;
18677;SDS011;9469;51.114;13.914;2022-09-27T14:48:52;4.30;;;1.00;;
18677;SDS011;9469;51.114;13.914;2022-09-27T14:54:00;3.03;;;0.70;;
18677;SDS011;9469;51.114;13.914;2022-09-27T14:59:09;1.57;;;1.10;;
18677;SDS011;9469;51.114;13.914;2022-09-27T15:04:19;47.07;;;4.27;;
18677;SDS011;9469;51.114;13.914;2022-09-27T15:09:26;1.53;;;0.80;;
18677;SDS011;9469;51.114;13.914;2022-09-27T15:14:36;6.20;;;1.40;;
18677;SDS011;9469;51.114;13.914;2022-09-27T15:20:00;1.13;;;0.80;;
18677;SDS011;9469;51.114;13.914;2022-09-27T15:25:14;5.30;;;1.27;;
18677;SDS011;9469;51.114;13.914;2022-09-27T15:30:26;0.93;;;0.90;;
18677;SDS011;9469;51.114;13.914;2022-09-27T15:35:36;0.97;;;0.90;;
18677;SDS011;9469;51.114;13.914;2022-09-27T15:46:35;2.60;;;0.80;;
18677;SDS011;9469;51.114;13.914;2022-09-27T15:51:43;3.67;;;0.80;;
18677;SDS011;9469;51.114;13.914;2022-09-27T15:56:50;2.17;;;0.90;;
18677;SDS011;9469;51.114;13.914;2022-09-27T16:02:00;5.13;;;1.00;;
18677;SDS011;9469;51.114;13.914;2022-09-27T16:07:09;2.70;;;1.50;;
18677;SDS011;9469;51.114;13.914;2022-09-27T16:12:15;4.77;;;1.20;;
18677;SDS011;9469;51.114;13.914;2022-09-27T16:17:22;0.90;;;0.90;;
18677;SDS011;9469;51.114;13.914;2022-09-27T16:22:30;2.63;;;1.23;;
18677;SDS011;9469;51.114;13.914;2022-09-27T16:27:35;2.17;;;1.13;;
18677;SDS011;9469;51.114;13.914;2022-09-27T16:32:43;5.10;;;1.33;;
18677;SDS011;9469;51.114;13.914;2022-09-27T16:37:50;2.83;;;1.10;;
18677;SDS011;9469;51.114;13.914;2022-09-27T16:42:54;3.00;;;1.10;;
18677;SDS011;9469;51.114;13.914;2022-09-27T16:48:02;3.50;;;1.13;;
18677;SDS011;9469;51.114;13.914;2022-09-27T16:53:12;2.50;;;1.50;;
18677;SDS011;9469;51.114;13.914;2022-09-27T16:58:17;8.00;;;1.57;;
18677;SDS011;9469;51.114;13.914;2022-09-27T17:03:26;2.73;;;1.20;;
18677;SDS011;9469;51.114;13.914;2022-09-27T17:08:31;3.83;;;1.13;;
18677;SDS011;9469;51.114;13.914;2022-09-27T17:13:36;1.50;;;1.20;;
18677;SDS011;9469;51.114;13.914;2022-09-27T17:18:44;2.90;;;1.20;;
18677;SDS011;9469;51.114;13.914;2022-09-27T17:23:49;2.87;;;1.00;;
18677;SDS011;9469;51.114;13.914;2022-09-27T17:28:55;1.43;;;1.07;;
18677;SDS011;9469;51.114;13.914;2022-09-27T17:34:05;1.23;;;1.00;;
18677;SDS011;9469;51.114;13.914;2022-09-27T17:39:13;1.33;;;1.17;;
18677;SDS011;9469;51.114;13.914;2022-09-27T17:44:19;1.10;;;1.00;;
18677;SDS011;9469;51.114;13.914;2022-09-27T17:49:30;1.10;;;1.10;;
18677;SDS011;9469;51.114;13.914;2022-09-27T17:54:47;1.63;;;1.10;;
18677;SDS011;9469;51.114;13.914;2022-09-27T17:59:55;2.27;;;1.07;;
18677;SDS011;9469;51.114;13.914;2022-09-27T18:05:04;2.17;;;1.50;;
18677;SDS011;9469;51.114;13.914;2022-09-27T18:10:14;1.57;;;1.33;;
18677;SDS011;9469;51.114;13.914;2022-09-27T18:15:20;3.57;;;1.60;;
18677;SDS011;9469;51.114;13.914;2022-09-27T18:20:31;3.40;;;1.47;;
18677;SDS011;9469;51.114;13.914;2022-09-27T18:25:37;2.27;;;1.90;;
18677;SDS011;9469;51.114;13.914;2022-09-27T18:30:42;1.50;;;1.40;;
18677;SDS011;9469;51.114;13.914;2022-09-27T18:35:49;2.70;;;1.80;;
18677;SDS011;9469;51.114;13.914;2022-09-27T18:40:54;1.70;;;1.60;;
18677;SDS011;9469;51.114;13.914;2022-09-27T18:46:00;5.03;;;1.80;;
18677;SDS011;9469;51.114;13.914;2022-09-27T18:51:28;3.23;;;1.87;;
18677;SDS011;9469;51.114;13.914;2022-09-27T18:56:36;5.13;;;1.90;;
18677;SDS011;9469;51.114;13.914;2022-09-27T19:01:42;2.37;;;1.27;;
18677;SDS011;9469;51.114;13.914;2022-09-27T19:06:51;1.63;;;1.53;;
18677;SDS011;9469;51.114;13.914;2022-09-27T19:11:59;2.50;;;2.00;;
18677;SDS011;9469;51.114;13.914;2022-09-27T19:17:04;3.40;;;2.67;;
18677;SDS011;9469;51.114;13.914;2022-09-27T19:22:12;3.37;;;1.73;;
18677;SDS011;9469;51.114;13.914;2022-09-27T19:27:19;2.50;;;1.60;;
18677;SDS011;9469;51.114;13.914;2022-09-27T19:32:24;4.37;;;1.90;;
18677;SDS011;9469;51.114;13.914;2022-09-27T19:37:32;2.17;;;1.70;;
18677;SDS011;9469;51.114;13.914;2022-09-27T19:42:39;3.63;;;1.70;;
18677;SDS011;9469;51.114;13.914;2022-09-27T19:47:46;1.87;;;1.70;;
18677;SDS011;9469;51.114;13.914;2022-09-27T19:52:54;2.17;;;1.70;;
18677;SDS011;9469;51.114;13.914;2022-09-27T19:57:59;2.37;;;1.60;;
18677;SDS011;9469;51.114;13.914;2022-09-27T20:03:04;2.27;;;1.87;;
18677;SDS011;9469;51.114;13.914;2022-09-27T20:08:12;3.50;;;1.47;;
18677;SDS011;9469;51.114;13.914;2022-09-27T20:13:16;3.03;;;1.60;;
18677;SDS011;9469;51.114;13.914;2022-09-27T20:18:21;4.13;;;2.30;;
18677;SDS011;9469;51.114;13.914;2022-09-27T20:23:29;3.57;;;2.30;;
18677;SDS011;9469;51.114;13.914;2022-09-27T20:28:39;2.00;;;1.70;;
18677;SDS011;9469;51.114;13.914;2022-09-27T20:33:44;1.87;;;1.70;;
18677;SDS011;9469;51.114;13.914;2022-09-27T20:38:54;2.33;;;1.60;;
18677;SDS011;9469;51.114;13.914;2022-09-27T20:44:04;2.00;;;1.70;;
18677;SDS011;9469;51.114;13.914;2022-09-27T20:49:11;4.83;;;1.70;;
18677;SDS011;9469;51.114;13.914;2022-09-27T20:54:20;2.37;;;1.70;;
18677;SDS011;9469;51.114;13.914;2022-09-27T20:59:25;1.77;;;1.60;;
18677;SDS011;9469;51.114;13.914;2022-09-27T21:04:30;1.50;;;1.40;;
18677;SDS011;9469;51.114;13.914;2022-09-27T21:09:37;1.57;;;1.47;;
18677;SDS011;9469;51.114;13.914;2022-09-27T21:14:42;2.03;;;1.47;;
18677;SDS011;9469;51.114;13.914;2022-09-27T21:19:47;2.10;;;1.50;;
18677;SDS011;9469;51.114;13.914;2022-09-27T21:24:54;2.40;;;1.20;;
18677;SDS011;9469;51.114;13.914;2022-09-27T21:29:59;3.63;;;1.30;;
18677;SDS011;9469;51.114;13.914;2022-09-27T21:35:06;1.33;;;1.23;;
18677;SDS011;9469;51.114;13.914;2022-09-27T21:40:17;1.33;;;1.23;;
18677;SDS011;9469;51.114;13.914;2022-09-27T21:45:23;1.93;;;1.30;;
18677;SDS011;9469;51.114;13.914;2022-09-27T21:50:28;1.90;;;1.43;;
18677;SDS011;9469;51.114;13.914;2022-09-27T21:55:37;1.20;;;1.20;;
18677;SDS011;9469;51.114;13.914;2022-09-27T22:00:41;4.93;;;1.47;;
18677;SDS011;9469;51.114;13.914;2022-09-27T22:05:47;1.50;;;1.40;;
18677;SDS011;9469;51.114;13.914;2022-09-27T22:10:56;2.30;;;1.17;;
18677;SDS011;9469;51.114;13.914;2022-09-27T22:16:01;2.13;;;1.10;;
18677;SDS011;9469;51.114;13.914;2022-09-27T22:21:10;1.37;;;1.10;;
18677;SDS011;9469;51.114;13.914;2022-09-27T22:26:19;2.37;;;1.10;;
18677;SDS011;9469;51.114;13.914;2022-09-27T22:31:26;2.63;;;1.30;;
18677;SDS011;9469;51.114;13.914;2022-09-27T22:36:32;2.30;;;1.50;;
18677;SDS011;9469;51.114;13.914;2022-09-27T22:41:41;1.40;;;1.30;;
18677;SDS011;9469;51.114;13.914;2022-09-27T22:46:45;1.50;;;1.40;;
18677;SDS011;9469;51.114;13.914;2022-09-27T22:51:50;3.57;;;1.83;;
18677;SDS011;9469;51.114;13.914;2022-09-27T22:57:00;1.83;;;1.40;;
18677;SDS011;9469;51.114;13.914;2022-09-27T23:02:05;2.20;;;1.00;;
18677;SDS011;9469;51.114;13.914;2022-09-27T23:07:10;1.23;;;1.10;;
18677;SDS011;9469;51.114;13.914;2022-09-27T23:12:17;3.07;;;1.57;;
18677;SDS011;9469;51.114;13.914;2022-09-27T23:17:23;1.70;;;1.33;;
18677;SDS011;9469;51.114;13.914;2022-09-27T23:22:27;1.27;;;1.00;;
18677;SDS011;9469;51.114;13.914;2022-09-27T23:27:37;1.73;;;1.00;;
18677;SDS011;9469;51.114;13.914;2022-09-27T23:32:50;1.83;;;1.00;;
18677;SDS011;9469;51.114;13.914;2022-09-27T23:37:56;1.83;;;1.27;;
18677;SDS011;9469;51.114;13.914;2022-09-27T23:43:04;1.77;;;0.80;;
18677;SDS011;9469;51.114;13.914;2022-09-27T23:48:09;2.50;;;1.10;;
18677;SDS011;9469;51.114;13.914;2022-09-27T23:53:14;1.80;;;1.27;;
18677;SDS011;9469;51.114;13.914;2022-09-27T23:58:21;1.10;;;0.93;;
